Aviation Digital Data Service (ADDS)

Output produced by METARs form (0748 UTC 18 September 2021)
found at http://www.aviationweather.gov/metar/data/
 
METAR text: VTBU 180730Z 20008KT 9999 VCTS FEW018CB 31/24 Q1008 RETS NOSIG
Conditions at: VTBU (RAYONG/U-TAPHAO , TH) observed 0730 UTC 18 September 2021
Temperature: 31.0°C (88°F)
Dewpoint: 24.0°C (75°F) [RH = 66%]
Pressure (altimeter): 29.76 inches Hg (1008.0 mb)
Winds: from the SSW (200 degrees) at 9 MPH (8 knots; 4.1 m/s)
Visibility: 6 or more miles (10+ km)
Ceiling: at least 12,000 feet AGL
Clouds: few clouds at 1800 feet AGL
Weather: VCTS  (thunderstorm in vicinity)

METAR text: VTBU 180700Z 19010KT 9999 FEW020 31/26 Q1009 NOSIG
Conditions at: VTBU (RAYONG/U-TAPHAO , TH) observed 0700 UTC 18 September 2021
Temperature: 31.0°C (88°F)
Dewpoint: 26.0°C (79°F) [RH = 75%]
Pressure (altimeter): 29.79 inches Hg (1009.0 mb)
Winds: from the S (190 degrees) at 12 MPH (10 knots; 5.1 m/s)
Visibility: 6 or more miles (10+ km)
Ceiling: at least 12,000 feet AGL
Clouds: few clouds at 2000 feet AGL
Weather: no significant weather observed at this time

METAR text: VTBU 180630Z 18010KT 9999 FEW020 31/26 Q1009 NOSIG
Conditions at: VTBU (RAYONG/U-TAPHAO , TH) observed 0630 UTC 18 September 2021
Temperature: 31.0°C (88°F)
Dewpoint: 26.0°C (79°F) [RH = 75%]
Pressure (altimeter): 29.79 inches Hg (1009.0 mb)
Winds: from the S (180 degrees) at 12 MPH (10 knots; 5.1 m/s)
Visibility: 6 or more miles (10+ km)
Ceiling: at least 12,000 feet AGL
Clouds: few clouds at 2000 feet AGL
Weather: no significant weather observed at this time

METAR text: VTBU 180600Z 18008KT 9999 FEW020 31/26 Q1010 NOSIG
Conditions at: VTBU (RAYONG/U-TAPHAO , TH) observed 0600 UTC 18 September 2021
Temperature: 31.0°C (88°F)
Dewpoint: 26.0°C (79°F) [RH = 75%]
Pressure (altimeter): 29.82 inches Hg (1010.0 mb)
Winds: from the S (180 degrees) at 9 MPH (8 knots; 4.1 m/s)
Visibility: 6 or more miles (10+ km)
Ceiling: at least 12,000 feet AGL
Clouds: few clouds at 2000 feet AGL
Weather: no significant weather observed at this time

METAR text: VTBU 180530Z 18010KT 9999 FEW020 31/25 Q1010 NOSIG
Conditions at: VTBU (RAYONG/U-TAPHAO , TH) observed 0530 UTC 18 September 2021
Temperature: 31.0°C (88°F)
Dewpoint: 25.0°C (77°F) [RH = 71%]
Pressure (altimeter): 29.82 inches Hg (1010.0 mb)
Winds: from the S (180 degrees) at 12 MPH (10 knots; 5.1 m/s)
Visibility: 6 or more miles (10+ km)
Ceiling: at least 12,000 feet AGL
Clouds: few clouds at 2000 feet AGL
Weather: no significant weather observed at this time

METAR text: VTBU 180500Z 18008KT 9999 FEW020 31/25 Q1010 NOSIG
Conditions at: VTBU (RAYONG/U-TAPHAO , TH) observed 0500 UTC 18 September 2021
Temperature: 31.0°C (88°F)
Dewpoint: 25.0°C (77°F) [RH = 71%]
Pressure (altimeter): 29.82 inches Hg (1010.0 mb)
Winds: from the S (180 degrees) at 9 MPH (8 knots; 4.1 m/s)
Visibility: 6 or more miles (10+ km)
Ceiling: at least 12,000 feet AGL
Clouds: few clouds at 2000 feet AGL
Weather: no significant weather observed at this time

METAR text: VTBU 180430Z 17008KT 9999 FEW020 31/25 Q1011 NOSIG
Conditions at: VTBU (RAYONG/U-TAPHAO , TH) observed 0430 UTC 18 September 2021
Temperature: 31.0°C (88°F)
Dewpoint: 25.0°C (77°F) [RH = 71%]
Pressure (altimeter): 29.85 inches Hg (1011.0 mb)
Winds: from the S (170 degrees) at 9 MPH (8 knots; 4.1 m/s)
Visibility: 6 or more miles (10+ km)
Ceiling: at least 12,000 feet AGL
Clouds: few clouds at 2000 feet AGL
Weather: no significant weather observed at this time

METAR text: VTBU 180400Z 17008KT 9999 FEW020 31/26 Q1011 NOSIG
Conditions at: VTBU (RAYONG/U-TAPHAO , TH) observed 0400 UTC 18 September 2021
Temperature: 31.0°C (88°F)
Dewpoint: 26.0°C (79°F) [RH = 75%]
Pressure (altimeter): 29.85 inches Hg (1011.0 mb)
Winds: from the S (170 degrees) at 9 MPH (8 knots; 4.1 m/s)
Visibility: 6 or more miles (10+ km)
Ceiling: at least 12,000 feet AGL
Clouds: few clouds at 2000 feet AGL
Weather: no significant weather observed at this time

METAR text: VTBU 180330Z 18006KT 9999 FEW020 30/26 Q1011 NOSIG
Conditions at: VTBU (RAYONG/U-TAPHAO , TH) observed 0330 UTC 18 September 2021
Temperature: 30.0°C (86°F)
Dewpoint: 26.0°C (79°F) [RH = 79%]
Pressure (altimeter): 29.85 inches Hg (1011.0 mb)
Winds: from the S (180 degrees) at 7 MPH (6 knots; 3.1 m/s)
Visibility: 6 or more miles (10+ km)
Ceiling: at least 12,000 feet AGL
Clouds: few clouds at 2000 feet AGL
Weather: no significant weather observed at this time

METAR text: VTBU 180300Z 16006KT 9999 FEW020 30/25 Q1011 NOSIG
Conditions at: VTBU (RAYONG/U-TAPHAO , TH) observed 0300 UTC 18 September 2021
Temperature: 30.0°C (86°F)
Dewpoint: 25.0°C (77°F) [RH = 75%]
Pressure (altimeter): 29.85 inches Hg (1011.0 mb)
Winds: from the SSE (160 degrees) at 7 MPH (6 knots; 3.1 m/s)
Visibility: 6 or more miles (10+ km)
Ceiling: at least 12,000 feet AGL
Clouds: few clouds at 2000 feet AGL
Weather: no significant weather observed at this time

METAR text: VTBU 180230Z 17006KT 9999 FEW020 30/26 Q1011 NOSIG
Conditions at: VTBU (RAYONG/U-TAPHAO , TH) observed 0230 UTC 18 September 2021
Temperature: 30.0°C (86°F)
Dewpoint: 26.0°C (79°F) [RH = 79%]
Pressure (altimeter): 29.85 inches Hg (1011.0 mb)
Winds: from the S (170 degrees) at 7 MPH (6 knots; 3.1 m/s)
Visibility: 6 or more miles (10+ km)
Ceiling: at least 12,000 feet AGL
Clouds: few clouds at 2000 feet AGL
Weather: no significant weather observed at this time

METAR text: VTBU 180200Z 16003KT 9999 FEW020 30/26 Q1011 NOSIG
Conditions at: VTBU (RAYONG/U-TAPHAO , TH) observed 0200 UTC 18 September 2021
Temperature: 30.0°C (86°F)
Dewpoint: 26.0°C (79°F) [RH = 79%]
Pressure (altimeter): 29.85 inches Hg (1011.0 mb)
Winds: from the SSE (160 degrees) at 3 MPH (3 knots; 1.5 m/s)
Visibility: 6 or more miles (10+ km)
Ceiling: at least 12,000 feet AGL
Clouds: few clouds at 2000 feet AGL
Weather: no significant weather observed at this time

METAR text: VTBU 180130Z 00000KT 9999 FEW020 30/26 Q1010 NOSIG
Conditions at: VTBU (RAYONG/U-TAPHAO , TH) observed 0130 UTC 18 September 2021
Temperature: 30.0°C (86°F)
Dewpoint: 26.0°C (79°F) [RH = 79%]
Pressure (altimeter): 29.82 inches Hg (1010.0 mb)
Winds: calm
Visibility: 6 or more miles (10+ km)
Ceiling: at least 12,000 feet AGL
Clouds: few clouds at 2000 feet AGL
Weather: no significant weather observed at this time

METAR text: VTBU 180100Z 08003KT 030V100 9999 FEW020 29/26 Q1010 NOSIG
Conditions at: VTBU (RAYONG/U-TAPHAO , TH) observed 0100 UTC 18 September 2021
Temperature: 29.0°C (84°F)
Dewpoint: 26.0°C (79°F) [RH = 84%]
Pressure (altimeter): 29.82 inches Hg (1010.0 mb)
Winds: from the E (80 degrees) at 3 MPH (3 knots; 1.5 m/s)
Visibility: 6 or more miles (10+ km)
Ceiling: at least 12,000 feet AGL
Clouds: few clouds at 2000 feet AGL
Weather: no significant weather observed at this time

METAR text: VTBU 180030Z 00000KT 9999 FEW020 28/26 Q1009 NOSIG
Conditions at: VTBU (RAYONG/U-TAPHAO , TH) observed 0030 UTC 18 September 2021
Temperature: 28.0°C (82°F)
Dewpoint: 26.0°C (79°F) [RH = 89%]
Pressure (altimeter): 29.79 inches Hg (1009.0 mb)
Winds: calm
Visibility: 6 or more miles (10+ km)
Ceiling: at least 12,000 feet AGL
Clouds: few clouds at 2000 feet AGL
Weather: no significant weather observed at this time

METAR text: VTBU 180000Z VRB02KT 9000 FEW020 26/25 Q1009 NOSIG
Conditions at: VTBU (RAYONG/U-TAPHAO , TH) observed 0000 UTC 18 September 2021
Temperature: 26.0°C (79°F)
Dewpoint: 25.0°C (77°F) [RH = 94%]
Pressure (altimeter): 29.79 inches Hg (1009.0 mb)
Winds: variable direction winds at 2 MPH (2 knots; 1.0 m/s)
Visibility: 6 miles ( 9 km)
Ceiling: at least 12,000 feet AGL
Clouds: few clouds at 2000 feet AGL
Weather: no significant weather observed at this time

METAR text: VTBU 172330Z 00003KT 9000 FEW020 25/24 Q1009 NOSIG
Conditions at: VTBU (RAYONG/U-TAPHAO , TH) observed 2330 UTC 17 September 2021
Temperature: 25.0°C (77°F)
Dewpoint: 24.0°C (75°F) [RH = 94%]
Pressure (altimeter): 29.79 inches Hg (1009.0 mb)
Winds: variable direction winds at 3 MPH (3 knots; 1.5 m/s)
Visibility: 6 miles ( 9 km)
Ceiling: at least 12,000 feet AGL
Clouds: few clouds at 2000 feet AGL
Weather: no significant weather observed at this time

METAR text: VTBU 172300Z 34003KT 9000 FEW020 25/24 Q1008 NOSIG
Conditions at: VTBU (RAYONG/U-TAPHAO , TH) observed 2300 UTC 17 September 2021
Temperature: 25.0°C (77°F)
Dewpoint: 24.0°C (75°F) [RH = 94%]
Pressure (altimeter): 29.76 inches Hg (1008.0 mb)
Winds: from the NNW (340 degrees) at 3 MPH (3 knots; 1.5 m/s)
Visibility: 6 miles ( 9 km)
Ceiling: at least 12,000 feet AGL
Clouds: few clouds at 2000 feet AGL
Weather: no significant weather observed at this time

METAR text: VTBU 172230Z 00004KT 9999 FEW020 25/24 Q1008 NOSIG
Conditions at: VTBU (RAYONG/U-TAPHAO , TH) observed 2230 UTC 17 September 2021
Temperature: 25.0°C (77°F)
Dewpoint: 24.0°C (75°F) [RH = 94%]
Pressure (altimeter): 29.76 inches Hg (1008.0 mb)
Winds: variable direction winds at 5 MPH (4 knots; 2.1 m/s)
Visibility: 6 or more miles (10+ km)
Ceiling: at least 12,000 feet AGL
Clouds: few clouds at 2000 feet AGL
Weather: no significant weather observed at this time

METAR text: VTBU 172200Z 01004KT 9999 FEW020 25/24 Q1008 NOSIG
Conditions at: VTBU (RAYONG/U-TAPHAO , TH) observed 2200 UTC 17 September 2021
Temperature: 25.0°C (77°F)
Dewpoint: 24.0°C (75°F) [RH = 94%]
Pressure (altimeter): 29.76 inches Hg (1008.0 mb)
Winds: from the N (10 degrees) at 5 MPH (4 knots; 2.1 m/s)
Visibility: 6 or more miles (10+ km)
Ceiling: at least 12,000 feet AGL
Clouds: few clouds at 2000 feet AGL
Weather: no significant weather observed at this time

METAR text: VTBU 172130Z 35003KT 9999 FEW020 26/25 Q1008 NOSIG
Conditions at: VTBU (RAYONG/U-TAPHAO , TH) observed 2130 UTC 17 September 2021
Temperature: 26.0°C (79°F)
Dewpoint: 25.0°C (77°F) [RH = 94%]
Pressure (altimeter): 29.76 inches Hg (1008.0 mb)
Winds: from the N (350 degrees) at 3 MPH (3 knots; 1.5 m/s)
Visibility: 6 or more miles (10+ km)
Ceiling: at least 12,000 feet AGL
Clouds: few clouds at 2000 feet AGL
Weather: no significant weather observed at this time

METAR text: VTBU 172100Z 00004KT 9999 FEW020 26/25 Q1008 NOSIG
Conditions at: VTBU (RAYONG/U-TAPHAO , TH) observed 2100 UTC 17 September 2021
Temperature: 26.0°C (79°F)
Dewpoint: 25.0°C (77°F) [RH = 94%]
Pressure (altimeter): 29.76 inches Hg (1008.0 mb)
Winds: variable direction winds at 5 MPH (4 knots; 2.1 m/s)
Visibility: 6 or more miles (10+ km)
Ceiling: at least 12,000 feet AGL
Clouds: few clouds at 2000 feet AGL
Weather: no significant weather observed at this time

METAR text: VTBU 172030Z 35005KT 9999 FEW020 26/25 Q1008 NOSIG
Conditions at: VTBU (RAYONG/U-TAPHAO , TH) observed 2030 UTC 17 September 2021
Temperature: 26.0°C (79°F)
Dewpoint: 25.0°C (77°F) [RH = 94%]
Pressure (altimeter): 29.76 inches Hg (1008.0 mb)
Winds: from the N (350 degrees) at 6 MPH (5 knots; 2.6 m/s)
Visibility: 6 or more miles (10+ km)
Ceiling: at least 12,000 feet AGL
Clouds: few clouds at 2000 feet AGL
Weather: no significant weather observed at this time

METAR text: VTBU 172000Z 35004KT 9999 FEW020 26/25 Q1008 NOSIG
Conditions at: VTBU (RAYONG/U-TAPHAO , TH) observed 2000 UTC 17 September 2021
Temperature: 26.0°C (79°F)
Dewpoint: 25.0°C (77°F) [RH = 94%]
Pressure (altimeter): 29.76 inches Hg (1008.0 mb)
Winds: from the N (350 degrees) at 5 MPH (4 knots; 2.1 m/s)
Visibility: 6 or more miles (10+ km)
Ceiling: at least 12,000 feet AGL
Clouds: few clouds at 2000 feet AGL
Weather: no significant weather observed at this time

METAR text: VTBU 171930Z 35003KT 9999 FEW020 26/25 Q1009 NOSIG
Conditions at: VTBU (RAYONG/U-TAPHAO , TH) observed 1930 UTC 17 September 2021
Temperature: 26.0°C (79°F)
Dewpoint: 25.0°C (77°F) [RH = 94%]
Pressure (altimeter): 29.79 inches Hg (1009.0 mb)
Winds: from the N (350 degrees) at 3 MPH (3 knots; 1.5 m/s)
Visibility: 6 or more miles (10+ km)
Ceiling: at least 12,000 feet AGL
Clouds: few clouds at 2000 feet AGL
Weather: no significant weather observed at this time

METAR text: VTBU 171900Z 35004KT 9999 FEW020 26/25 Q1009 NOSIG
Conditions at: VTBU (RAYONG/U-TAPHAO , TH) observed 1900 UTC 17 September 2021
Temperature: 26.0°C (79°F)
Dewpoint: 25.0°C (77°F) [RH = 94%]
Pressure (altimeter): 29.79 inches Hg (1009.0 mb)
Winds: from the N (350 degrees) at 5 MPH (4 knots; 2.1 m/s)
Visibility: 6 or more miles (10+ km)
Ceiling: at least 12,000 feet AGL
Clouds: few clouds at 2000 feet AGL
Weather: no significant weather observed at this time

METAR text: VTBU 171830Z 01003KT 9999 FEW020 26/25 Q1009 NOSIG
Conditions at: VTBU (RAYONG/U-TAPHAO , TH) observed 1830 UTC 17 September 2021
Temperature: 26.0°C (79°F)
Dewpoint: 25.0°C (77°F) [RH = 94%]
Pressure (altimeter): 29.79 inches Hg (1009.0 mb)
Winds: from the N (10 degrees) at 3 MPH (3 knots; 1.5 m/s)
Visibility: 6 or more miles (10+ km)
Ceiling: at least 12,000 feet AGL
Clouds: few clouds at 2000 feet AGL
Weather: no significant weather observed at this time

METAR text: VTBU 171800Z 31003KT 9999 FEW020 26/25 Q1010 NOSIG
Conditions at: VTBU (RAYONG/U-TAPHAO , TH) observed 1800 UTC 17 September 2021
Temperature: 26.0°C (79°F)
Dewpoint: 25.0°C (77°F) [RH = 94%]
Pressure (altimeter): 29.82 inches Hg (1010.0 mb)
Winds: from the NW (310 degrees) at 3 MPH (3 knots; 1.5 m/s)
Visibility: 6 or more miles (10+ km)
Ceiling: at least 12,000 feet AGL
Clouds: few clouds at 2000 feet AGL
Weather: no significant weather observed at this time

METAR text: VTBU 171730Z 00000KT 9999 FEW020 26/25 Q1010 NOSIG
Conditions at: VTBU (RAYONG/U-TAPHAO , TH) observed 1730 UTC 17 September 2021
Temperature: 26.0°C (79°F)
Dewpoint: 25.0°C (77°F) [RH = 94%]
Pressure (altimeter): 29.82 inches Hg (1010.0 mb)
Winds: calm
Visibility: 6 or more miles (10+ km)
Ceiling: at least 12,000 feet AGL
Clouds: few clouds at 2000 feet AGL
Weather: no significant weather observed at this time

METAR text: VTBU 171700Z 01004KT 9999 FEW020 26/25 Q1011 NOSIG
Conditions at: VTBU (RAYONG/U-TAPHAO , TH) observed 1700 UTC 17 September 2021
Temperature: 26.0°C (79°F)
Dewpoint: 25.0°C (77°F) [RH = 94%]
Pressure (altimeter): 29.85 inches Hg (1011.0 mb)
Winds: from the N (10 degrees) at 5 MPH (4 knots; 2.1 m/s)
Visibility: 6 or more miles (10+ km)
Ceiling: at least 12,000 feet AGL
Clouds: few clouds at 2000 feet AGL
Weather: no significant weather observed at this time

METAR text: VTBU 171630Z 16003KT 9999 FEW020 27/25 Q1011 NOSIG
Conditions at: VTBU (RAYONG/U-TAPHAO , TH) observed 1630 UTC 17 September 2021
Temperature: 27.0°C (81°F)
Dewpoint: 25.0°C (77°F) [RH = 89%]
Pressure (altimeter): 29.85 inches Hg (1011.0 mb)
Winds: from the SSE (160 degrees) at 3 MPH (3 knots; 1.5 m/s)
Visibility: 6 or more miles (10+ km)
Ceiling: at least 12,000 feet AGL
Clouds: few clouds at 2000 feet AGL
Weather: no significant weather observed at this time

METAR text: VTBU 171600Z 17003KT 9999 FEW020 27/26 Q1011 NOSIG
Conditions at: VTBU (RAYONG/U-TAPHAO , TH) observed 1600 UTC 17 September 2021
Temperature: 27.0°C (81°F)
Dewpoint: 26.0°C (79°F) [RH = 94%]
Pressure (altimeter): 29.85 inches Hg (1011.0 mb)
Winds: from the S (170 degrees) at 3 MPH (3 knots; 1.5 m/s)
Visibility: 6 or more miles (10+ km)
Ceiling: at least 12,000 feet AGL
Clouds: few clouds at 2000 feet AGL
Weather: no significant weather observed at this time

METAR text: VTBU 171530Z 16004KT 9999 FEW020 27/25 Q1011 NOSIG
Conditions at: VTBU (RAYONG/U-TAPHAO , TH) observed 1530 UTC 17 September 2021
Temperature: 27.0°C (81°F)
Dewpoint: 25.0°C (77°F) [RH = 89%]
Pressure (altimeter): 29.85 inches Hg (1011.0 mb)
Winds: from the SSE (160 degrees) at 5 MPH (4 knots; 2.1 m/s)
Visibility: 6 or more miles (10+ km)
Ceiling: at least 12,000 feet AGL
Clouds: few clouds at 2000 feet AGL
Weather: no significant weather observed at this time

METAR text: VTBU 171500Z 18005KT 9999 FEW020 27/25 Q1011 NOSIG
Conditions at: VTBU (RAYONG/U-TAPHAO , TH) observed 1500 UTC 17 September 2021
Temperature: 27.0°C (81°F)
Dewpoint: 25.0°C (77°F) [RH = 89%]
Pressure (altimeter): 29.85 inches Hg (1011.0 mb)
Winds: from the S (180 degrees) at 6 MPH (5 knots; 2.6 m/s)
Visibility: 6 or more miles (10+ km)
Ceiling: at least 12,000 feet AGL
Clouds: few clouds at 2000 feet AGL
Weather: no significant weather observed at this time

METAR text: VTBU 171430Z VRB02KT 9999 FEW020 27/25 Q1011 NOSIG
Conditions at: VTBU (RAYONG/U-TAPHAO , TH) observed 1430 UTC 17 September 2021
Temperature: 27.0°C (81°F)
Dewpoint: 25.0°C (77°F) [RH = 89%]
Pressure (altimeter): 29.85 inches Hg (1011.0 mb)
Winds: variable direction winds at 2 MPH (2 knots; 1.0 m/s)
Visibility: 6 or more miles (10+ km)
Ceiling: at least 12,000 feet AGL
Clouds: few clouds at 2000 feet AGL
Weather: no significant weather observed at this time

METAR text: VTBU 171400Z 14003KT 9999 FEW020 27/25 Q1010 NOSIG
Conditions at: VTBU (RAYONG/U-TAPHAO , TH) observed 1400 UTC 17 September 2021
Temperature: 27.0°C (81°F)
Dewpoint: 25.0°C (77°F) [RH = 89%]
Pressure (altimeter): 29.82 inches Hg (1010.0 mb)
Winds: from the SE (140 degrees) at 3 MPH (3 knots; 1.5 m/s)
Visibility: 6 or more miles (10+ km)
Ceiling: at least 12,000 feet AGL
Clouds: few clouds at 2000 feet AGL
Weather: no significant weather observed at this time

METAR text: VTBU 171330Z 16004KT 9999 FEW020 SCT100 27/24 Q1010 NOSIG
Conditions at: VTBU (RAYONG/U-TAPHAO , TH) observed 1330 UTC 17 September 2021
Temperature: 27.0°C (81°F)
Dewpoint: 24.0°C (75°F) [RH = 84%]
Pressure (altimeter): 29.82 inches Hg (1010.0 mb)
Winds: from the SSE (160 degrees) at 5 MPH (4 knots; 2.1 m/s)
Visibility: 6 or more miles (10+ km)
Ceiling: at least 12,000 feet AGL
Clouds: few clouds at 2000 feet AGL
scattered clouds at 10000 feet AGL
Weather: no significant weather observed at this time

METAR text: VTBU 171300Z 16003KT 9999 FEW020 SCT100 27/26 Q1009 NOSIG
Conditions at: VTBU (RAYONG/U-TAPHAO , TH) observed 1300 UTC 17 September 2021
Temperature: 27.0°C (81°F)
Dewpoint: 26.0°C (79°F) [RH = 94%]
Pressure (altimeter): 29.79 inches Hg (1009.0 mb)
Winds: from the SSE (160 degrees) at 3 MPH (3 knots; 1.5 m/s)
Visibility: 6 or more miles (10+ km)
Ceiling: at least 12,000 feet AGL
Clouds: few clouds at 2000 feet AGL
scattered clouds at 10000 feet AGL
Weather: no significant weather observed at this time

METAR text: VTBU 171230Z 15004KT 9999 FEW020 SCT100 27/25 Q1009 NOSIG
Conditions at: VTBU (RAYONG/U-TAPHAO , TH) observed 1230 UTC 17 September 2021
Temperature: 27.0°C (81°F)
Dewpoint: 25.0°C (77°F) [RH = 89%]
Pressure (altimeter): 29.79 inches Hg (1009.0 mb)
Winds: from the SSE (150 degrees) at 5 MPH (4 knots; 2.1 m/s)
Visibility: 6 or more miles (10+ km)
Ceiling: at least 12,000 feet AGL
Clouds: few clouds at 2000 feet AGL
scattered clouds at 10000 feet AGL
Weather: no significant weather observed at this time

METAR text: VTBU 171200Z 15005KT 9999 FEW020 SCT100 27/24 Q1009 NOSIG
Conditions at: VTBU (RAYONG/U-TAPHAO , TH) observed 1200 UTC 17 September 2021
Temperature: 27.0°C (81°F)
Dewpoint: 24.0°C (75°F) [RH = 84%]
Pressure (altimeter): 29.79 inches Hg (1009.0 mb)
Winds: from the SSE (150 degrees) at 6 MPH (5 knots; 2.6 m/s)
Visibility: 6 or more miles (10+ km)
Ceiling: at least 12,000 feet AGL
Clouds: few clouds at 2000 feet AGL
scattered clouds at 10000 feet AGL
Weather: no significant weather observed at this time

METAR text: VTBU 171130Z 16004KT 9999 FEW020 SCT100 27/24 Q1008 NOSIG
Conditions at: VTBU (RAYONG/U-TAPHAO , TH) observed 1130 UTC 17 September 2021
Temperature: 27.0°C (81°F)
Dewpoint: 24.0°C (75°F) [RH = 84%]
Pressure (altimeter): 29.76 inches Hg (1008.0 mb)
Winds: from the SSE (160 degrees) at 5 MPH (4 knots; 2.1 m/s)
Visibility: 6 or more miles (10+ km)
Ceiling: at least 12,000 feet AGL
Clouds: few clouds at 2000 feet AGL
scattered clouds at 10000 feet AGL
Weather: no significant weather observed at this time

METAR text: VTBU 171100Z 16005KT 9999 FEW020 SCT100 27/25 Q1008 NOSIG
Conditions at: VTBU (RAYONG/U-TAPHAO , TH) observed 1100 UTC 17 September 2021
Temperature: 27.0°C (81°F)
Dewpoint: 25.0°C (77°F) [RH = 89%]
Pressure (altimeter): 29.76 inches Hg (1008.0 mb)
Winds: from the SSE (160 degrees) at 6 MPH (5 knots; 2.6 m/s)
Visibility: 6 or more miles (10+ km)
Ceiling: at least 12,000 feet AGL
Clouds: few clouds at 2000 feet AGL
scattered clouds at 10000 feet AGL
Weather: no significant weather observed at this time

METAR text: VTBU 171030Z 17005KT 9999 FEW020 28/24 Q1008 NOSIG
Conditions at: VTBU (RAYONG/U-TAPHAO , TH) observed 1030 UTC 17 September 2021
Temperature: 28.0°C (82°F)
Dewpoint: 24.0°C (75°F) [RH = 79%]
Pressure (altimeter): 29.76 inches Hg (1008.0 mb)
Winds: from the S (170 degrees) at 6 MPH (5 knots; 2.6 m/s)
Visibility: 6 or more miles (10+ km)
Ceiling: at least 12,000 feet AGL
Clouds: few clouds at 2000 feet AGL
Weather: no significant weather observed at this time

METAR text: VTBU 171000Z 20005KT 9999 FEW020 29/24 Q1007 NOSIG
Conditions at: VTBU (RAYONG/U-TAPHAO , TH) observed 1000 UTC 17 September 2021
Temperature: 29.0°C (84°F)
Dewpoint: 24.0°C (75°F) [RH = 74%]
Pressure (altimeter): 29.73 inches Hg (1007.0 mb)
Winds: from the SSW (200 degrees) at 6 MPH (5 knots; 2.6 m/s)
Visibility: 6 or more miles (10+ km)
Ceiling: at least 12,000 feet AGL
Clouds: few clouds at 2000 feet AGL
Weather: no significant weather observed at this time

METAR text: VTBU 170930Z 21007KT 9999 FEW020 29/24 Q1007 NOSIG
Conditions at: VTBU (RAYONG/U-TAPHAO , TH) observed 0930 UTC 17 September 2021
Temperature: 29.0°C (84°F)
Dewpoint: 24.0°C (75°F) [RH = 74%]
Pressure (altimeter): 29.73 inches Hg (1007.0 mb)
Winds: from the SSW (210 degrees) at 8 MPH (7 knots; 3.6 m/s)
Visibility: 6 or more miles (10+ km)
Ceiling: at least 12,000 feet AGL
Clouds: few clouds at 2000 feet AGL
Weather: no significant weather observed at this time

METAR text: VTBU 170900Z 23009KT 9999 FEW020 30/23 Q1007 NOSIG
Conditions at: VTBU (RAYONG/U-TAPHAO , TH) observed 0900 UTC 17 September 2021
Temperature: 30.0°C (86°F)
Dewpoint: 23.0°C (73°F) [RH = 66%]
Pressure (altimeter): 29.73 inches Hg (1007.0 mb)
Winds: from the SW (230 degrees) at 10 MPH (9 knots; 4.6 m/s)
Visibility: 6 or more miles (10+ km)
Ceiling: at least 12,000 feet AGL
Clouds: few clouds at 2000 feet AGL
Weather: no significant weather observed at this time

METAR text: VTBU 170830Z 23008KT 9999 FEW020 30/24 Q1008 NOSIG
Conditions at: VTBU (RAYONG/U-TAPHAO , TH) observed 0830 UTC 17 September 2021
Temperature: 30.0°C (86°F)
Dewpoint: 24.0°C (75°F) [RH = 70%]
Pressure (altimeter): 29.76 inches Hg (1008.0 mb)
Winds: from the SW (230 degrees) at 9 MPH (8 knots; 4.1 m/s)
Visibility: 6 or more miles (10+ km)
Ceiling: at least 12,000 feet AGL
Clouds: few clouds at 2000 feet AGL
Weather: no significant weather observed at this time

METAR text: VTBU 170800Z 25008KT 9999 FEW020 31/24 Q1008 NOSIG
Conditions at: VTBU (RAYONG/U-TAPHAO , TH) observed 0800 UTC 17 September 2021
Temperature: 31.0°C (88°F)
Dewpoint: 24.0°C (75°F) [RH = 66%]
Pressure (altimeter): 29.76 inches Hg (1008.0 mb)
Winds: from the WSW (250 degrees) at 9 MPH (8 knots; 4.1 m/s)
Visibility: 6 or more miles (10+ km)
Ceiling: at least 12,000 feet AGL
Clouds: few clouds at 2000 feet AGL
Weather: no significant weather observed at this time

METAR text: VTBU 170730Z 25008KT 9999 FEW020 31/24 Q1008 NOSIG
Conditions at: VTBU (RAYONG/U-TAPHAO , TH) observed 0730 UTC 17 September 2021
Temperature: 31.0°C (88°F)
Dewpoint: 24.0°C (75°F) [RH = 66%]
Pressure (altimeter): 29.76 inches Hg (1008.0 mb)
Winds: from the WSW (250 degrees) at 9 MPH (8 knots; 4.1 m/s)
Visibility: 6 or more miles (10+ km)
Ceiling: at least 12,000 feet AGL
Clouds: few clouds at 2000 feet AGL
Weather: no significant weather observed at this time

METAR text: VTBU 170700Z 25008KT 9999 FEW020 31/24 Q1008 NOSIG
Conditions at: VTBU (RAYONG/U-TAPHAO , TH) observed 0700 UTC 17 September 2021
Temperature: 31.0°C (88°F)
Dewpoint: 24.0°C (75°F) [RH = 66%]
Pressure (altimeter): 29.76 inches Hg (1008.0 mb)
Winds: from the WSW (250 degrees) at 9 MPH (8 knots; 4.1 m/s)
Visibility: 6 or more miles (10+ km)
Ceiling: at least 12,000 feet AGL
Clouds: few clouds at 2000 feet AGL
Weather: no significant weather observed at this time

METAR text: VTBU 170630Z 23006KT 9999 FEW020 30/24 Q1009 NOSIG
Conditions at: VTBU (RAYONG/U-TAPHAO , TH) observed 0630 UTC 17 September 2021
Temperature: 30.0°C (86°F)
Dewpoint: 24.0°C (75°F) [RH = 70%]
Pressure (altimeter): 29.79 inches Hg (1009.0 mb)
Winds: from the SW (230 degrees) at 7 MPH (6 knots; 3.1 m/s)
Visibility: 6 or more miles (10+ km)
Ceiling: at least 12,000 feet AGL
Clouds: few clouds at 2000 feet AGL
Weather: no significant weather observed at this time

METAR text: VTBU 170600Z 20007KT 9999 FEW020 31/24 Q1009 NOSIG
Conditions at: VTBU (RAYONG/U-TAPHAO , TH) observed 0600 UTC 17 September 2021
Temperature: 31.0°C (88°F)
Dewpoint: 24.0°C (75°F) [RH = 66%]
Pressure (altimeter): 29.79 inches Hg (1009.0 mb)
Winds: from the SSW (200 degrees) at 8 MPH (7 knots; 3.6 m/s)
Visibility: 6 or more miles (10+ km)
Ceiling: at least 12,000 feet AGL
Clouds: few clouds at 2000 feet AGL
Weather: no significant weather observed at this time

METAR text: VTBU 170530Z 19008KT 9999 FEW020 31/24 Q1010 NOSIG
Conditions at: VTBU (RAYONG/U-TAPHAO , TH) observed 0530 UTC 17 September 2021
Temperature: 31.0°C (88°F)
Dewpoint: 24.0°C (75°F) [RH = 66%]
Pressure (altimeter): 29.82 inches Hg (1010.0 mb)
Winds: from the S (190 degrees) at 9 MPH (8 knots; 4.1 m/s)
Visibility: 6 or more miles (10+ km)
Ceiling: at least 12,000 feet AGL
Clouds: few clouds at 2000 feet AGL
Weather: no significant weather observed at this time

METAR text: VTBU 170500Z 19008KT 9999 FEW020 31/25 Q1010 NOSIG
Conditions at: VTBU (RAYONG/U-TAPHAO , TH) observed 0500 UTC 17 September 2021
Temperature: 31.0°C (88°F)
Dewpoint: 25.0°C (77°F) [RH = 71%]
Pressure (altimeter): 29.82 inches Hg (1010.0 mb)
Winds: from the S (190 degrees) at 9 MPH (8 knots; 4.1 m/s)
Visibility: 6 or more miles (10+ km)
Ceiling: at least 12,000 feet AGL
Clouds: few clouds at 2000 feet AGL
Weather: no significant weather observed at this time

METAR text: VTBU 170430Z 17006KT 9999 FEW020 30/25 Q1010 NOSIG
Conditions at: VTBU (RAYONG/U-TAPHAO , TH) observed 0430 UTC 17 September 2021
Temperature: 30.0°C (86°F)
Dewpoint: 25.0°C (77°F) [RH = 75%]
Pressure (altimeter): 29.82 inches Hg (1010.0 mb)
Winds: from the S (170 degrees) at 7 MPH (6 knots; 3.1 m/s)
Visibility: 6 or more miles (10+ km)
Ceiling: at least 12,000 feet AGL
Clouds: few clouds at 2000 feet AGL
Weather: no significant weather observed at this time

METAR text: VTBU 170400Z 17007KT 9999 FEW020 30/25 Q1011 NOSIG
Conditions at: VTBU (RAYONG/U-TAPHAO , TH) observed 0400 UTC 17 September 2021
Temperature: 30.0°C (86°F)
Dewpoint: 25.0°C (77°F) [RH = 75%]
Pressure (altimeter): 29.85 inches Hg (1011.0 mb)
Winds: from the S (170 degrees) at 8 MPH (7 knots; 3.6 m/s)
Visibility: 6 or more miles (10+ km)
Ceiling: at least 12,000 feet AGL
Clouds: few clouds at 2000 feet AGL
Weather: no significant weather observed at this time

METAR text: VTBU 170330Z 18006KT 9999 FEW020 30/25 Q1011 NOSIG
Conditions at: VTBU (RAYONG/U-TAPHAO , TH) observed 0330 UTC 17 September 2021
Temperature: 30.0°C (86°F)
Dewpoint: 25.0°C (77°F) [RH = 75%]
Pressure (altimeter): 29.85 inches Hg (1011.0 mb)
Winds: from the S (180 degrees) at 7 MPH (6 knots; 3.1 m/s)
Visibility: 6 or more miles (10+ km)
Ceiling: at least 12,000 feet AGL
Clouds: few clouds at 2000 feet AGL
Weather: no significant weather observed at this time

METAR text: VTBU 170300Z 18005KT 9999 FEW020 30/25 Q1011 NOSIG
Conditions at: VTBU (RAYONG/U-TAPHAO , TH) observed 0300 UTC 17 September 2021
Temperature: 30.0°C (86°F)
Dewpoint: 25.0°C (77°F) [RH = 75%]
Pressure (altimeter): 29.85 inches Hg (1011.0 mb)
Winds: from the S (180 degrees) at 6 MPH (5 knots; 2.6 m/s)
Visibility: 6 or more miles (10+ km)
Ceiling: at least 12,000 feet AGL
Clouds: few clouds at 2000 feet AGL
Weather: no significant weather observed at this time

METAR text: VTBU 170230Z 20005KT 9999 FEW020 30/24 Q1011 NOSIG
Conditions at: VTBU (RAYONG/U-TAPHAO , TH) observed 0230 UTC 17 September 2021
Temperature: 30.0°C (86°F)
Dewpoint: 24.0°C (75°F) [RH = 70%]
Pressure (altimeter): 29.85 inches Hg (1011.0 mb)
Winds: from the SSW (200 degrees) at 6 MPH (5 knots; 2.6 m/s)
Visibility: 6 or more miles (10+ km)
Ceiling: at least 12,000 feet AGL
Clouds: few clouds at 2000 feet AGL
Weather: no significant weather observed at this time

METAR text: VTBU 170200Z 17004KT 9999 FEW020 29/25 Q1011 NOSIG
Conditions at: VTBU (RAYONG/U-TAPHAO , TH) observed 0200 UTC 17 September 2021
Temperature: 29.0°C (84°F)
Dewpoint: 25.0°C (77°F) [RH = 79%]
Pressure (altimeter): 29.85 inches Hg (1011.0 mb)
Winds: from the S (170 degrees) at 5 MPH (4 knots; 2.1 m/s)
Visibility: 6 or more miles (10+ km)
Ceiling: at least 12,000 feet AGL
Clouds: few clouds at 2000 feet AGL
Weather: no significant weather observed at this time

METAR text: VTBU 170130Z VRB02KT 9999 FEW020 29/25 Q1011 NOSIG
Conditions at: VTBU (RAYONG/U-TAPHAO , TH) observed 0130 UTC 17 September 2021
Temperature: 29.0°C (84°F)
Dewpoint: 25.0°C (77°F) [RH = 79%]
Pressure (altimeter): 29.85 inches Hg (1011.0 mb)
Winds: variable direction winds at 2 MPH (2 knots; 1.0 m/s)
Visibility: 6 or more miles (10+ km)
Ceiling: at least 12,000 feet AGL
Clouds: few clouds at 2000 feet AGL
Weather: no significant weather observed at this time

METAR text: VTBU 170100Z 00000KT 9999 FEW020 28/25 Q1011 NOSIG
Conditions at: VTBU (RAYONG/U-TAPHAO , TH) observed 0100 UTC 17 September 2021
Temperature: 28.0°C (82°F)
Dewpoint: 25.0°C (77°F) [RH = 84%]
Pressure (altimeter): 29.85 inches Hg (1011.0 mb)
Winds: calm
Visibility: 6 or more miles (10+ km)
Ceiling: at least 12,000 feet AGL
Clouds: few clouds at 2000 feet AGL
Weather: no significant weather observed at this time

METAR text: VTBU 170030Z VRB02KT 9999 FEW020 27/24 Q1010 NOSIG
Conditions at: VTBU (RAYONG/U-TAPHAO , TH) observed 0030 UTC 17 September 2021
Temperature: 27.0°C (81°F)
Dewpoint: 24.0°C (75°F) [RH = 84%]
Pressure (altimeter): 29.82 inches Hg (1010.0 mb)
Winds: variable direction winds at 2 MPH (2 knots; 1.0 m/s)
Visibility: 6 or more miles (10+ km)
Ceiling: at least 12,000 feet AGL
Clouds: few clouds at 2000 feet AGL
Weather: no significant weather observed at this time

METAR text: VTBU 170000Z 35003KT 9999 FEW020 25/24 Q1010 NOSIG
Conditions at: VTBU (RAYONG/U-TAPHAO , TH) observed 0000 UTC 17 September 2021
Temperature: 25.0°C (77°F)
Dewpoint: 24.0°C (75°F) [RH = 94%]
Pressure (altimeter): 29.82 inches Hg (1010.0 mb)
Winds: from the N (350 degrees) at 3 MPH (3 knots; 1.5 m/s)
Visibility: 6 or more miles (10+ km)
Ceiling: at least 12,000 feet AGL
Clouds: few clouds at 2000 feet AGL
Weather: no significant weather observed at this time

METAR text: VTBU 162330Z 36004KT 9999 FEW020 SCT100 25/24 Q1009 NOSIG
Conditions at: VTBU (RAYONG/U-TAPHAO , TH) observed 2330 UTC 16 September 2021
Temperature: 25.0°C (77°F)
Dewpoint: 24.0°C (75°F) [RH = 94%]
Pressure (altimeter): 29.79 inches Hg (1009.0 mb)
Winds: from the N (360 degrees) at 5 MPH (4 knots; 2.1 m/s)
Visibility: 6 or more miles (10+ km)
Ceiling: at least 12,000 feet AGL
Clouds: few clouds at 2000 feet AGL
scattered clouds at 10000 feet AGL
Weather: no significant weather observed at this time

METAR text: VTBU 162300Z 01006KT 9000 -RA FEW018 BKN100 24/24 Q1009 NOSIG
Conditions at: VTBU (RAYONG/U-TAPHAO , TH) observed 2300 UTC 16 September 2021
Temperature: 24.0°C (75°F)
Dewpoint: 24.0°C (75°F) [RH = 100%]
Pressure (altimeter): 29.79 inches Hg (1009.0 mb)
Winds: from the N (10 degrees) at 7 MPH (6 knots; 3.1 m/s)
Visibility: 6 miles ( 9 km)
Ceiling: 10000 feet AGL
Clouds: few clouds at 1800 feet AGL
broken clouds at 10000 feet AGL
Weather: -RA  (light rain)

METAR text: VTBU 162230Z 36004KT 9000 -RA FEW018 SCT035 BKN100 25/24 Q1010 RETSRA NOSIG
Conditions at: VTBU (RAYONG/U-TAPHAO , TH) observed 2230 UTC 16 September 2021
Temperature: 25.0°C (77°F)
Dewpoint: 24.0°C (75°F) [RH = 94%]
Pressure (altimeter): 29.82 inches Hg (1010.0 mb)
Winds: from the N (360 degrees) at 5 MPH (4 knots; 2.1 m/s)
Visibility: 6 miles ( 9 km)
Ceiling: 10000 feet AGL
Clouds: few clouds at 1800 feet AGL
scattered clouds at 3500 feet AGL
broken clouds at 10000 feet AGL
Weather: -RA  (light rain)

METAR text: VTBU 162200Z 29005KT 9000 -TSRA FEW018CB SCT035 BKN100 25/24 Q1009 RETSRA NOSIG
Conditions at: VTBU (RAYONG/U-TAPHAO , TH) observed 2200 UTC 16 September 2021
Temperature: 25.0°C (77°F)
Dewpoint: 24.0°C (75°F) [RH = 94%]
Pressure (altimeter): 29.79 inches Hg (1009.0 mb)
Winds: from the WNW (290 degrees) at 6 MPH (5 knots; 2.6 m/s)
Visibility: 6 miles ( 9 km)
Ceiling: 10000 feet AGL
Clouds: few clouds at 1800 feet AGL
scattered clouds at 3500 feet AGL
broken clouds at 10000 feet AGL
Weather: -TSRA  (light rain associated with thunderstorm(s))

METAR text: VTBU 162130Z 32008KT 9999 VCTS FEW018CB SCT100 25/24 Q1009 NOSIG
Conditions at: VTBU (RAYONG/U-TAPHAO , TH) observed 2130 UTC 16 September 2021
Temperature: 25.0°C (77°F)
Dewpoint: 24.0°C (75°F) [RH = 94%]
Pressure (altimeter): 29.79 inches Hg (1009.0 mb)
Winds: from the NW (320 degrees) at 9 MPH (8 knots; 4.1 m/s)
Visibility: 6 or more miles (10+ km)
Ceiling: at least 12,000 feet AGL
Clouds: few clouds at 1800 feet AGL
scattered clouds at 10000 feet AGL
Weather: VCTS  (thunderstorm in vicinity)

METAR text: VTBU 162100Z 33006KT 9999 VCTS FEW018CB SCT100 26/25 Q1009 RETS NOSIG
Conditions at: VTBU (RAYONG/U-TAPHAO , TH) observed 2100 UTC 16 September 2021
Temperature: 26.0°C (79°F)
Dewpoint: 25.0°C (77°F) [RH = 94%]
Pressure (altimeter): 29.79 inches Hg (1009.0 mb)
Winds: from the NNW (330 degrees) at 7 MPH (6 knots; 3.1 m/s)
Visibility: 6 or more miles (10+ km)
Ceiling: at least 12,000 feet AGL
Clouds: few clouds at 1800 feet AGL
scattered clouds at 10000 feet AGL
Weather: VCTS  (thunderstorm in vicinity)

METAR text: VTBU 162030Z 00000KT 9999 FEW020 26/25 Q1009 NOSIG
Conditions at: VTBU (RAYONG/U-TAPHAO , TH) observed 2030 UTC 16 September 2021
Temperature: 26.0°C (79°F)
Dewpoint: 25.0°C (77°F) [RH = 94%]
Pressure (altimeter): 29.79 inches Hg (1009.0 mb)
Winds: calm
Visibility: 6 or more miles (10+ km)
Ceiling: at least 12,000 feet AGL
Clouds: few clouds at 2000 feet AGL
Weather: no significant weather observed at this time

METAR text: VTBU 162000Z 00000KT 9999 FEW020 26/25 Q1009 NOSIG
Conditions at: VTBU (RAYONG/U-TAPHAO , TH) observed 2000 UTC 16 September 2021
Temperature: 26.0°C (79°F)
Dewpoint: 25.0°C (77°F) [RH = 94%]
Pressure (altimeter): 29.79 inches Hg (1009.0 mb)
Winds: calm
Visibility: 6 or more miles (10+ km)
Ceiling: at least 12,000 feet AGL
Clouds: few clouds at 2000 feet AGL
Weather: no significant weather observed at this time

Forecast for: VTBU (RAYONG/U-TAPHAO , TH)
Text: TAF VTBU 180500Z 1806/1906 17008KT 9999 FEW020
Forecast period: 0600 to 1600 UTC 18 September 2021
Forecast type: FROM: standard forecast or significant change
Winds: from the S (170 degrees) at 9 MPH (8 knots; 4.1 m/s)
Visibility: 6 or more miles (10+ km)
Ceiling: at least 12,000 feet AGL
Clouds: few clouds at 2000 feet AGL
Weather: no significant weather forecast for this period
Text: BECMG 1816/1818 35004KT
Forecast period: 1600 UTC 18 September 2021 to 0000 UTC 19 September 2021
Forecast type: BECOMING: Conditions expected to become as follows by 1800 UTC 18 September 2021
Winds: from the N (350 degrees) at 5 MPH (4 knots; 2.1 m/s)
Visibility: 6 or more miles (10+ km)
Ceiling: at least 12,000 feet AGL
Clouds: few clouds at 2000 feet AGL
Weather: no significant weather forecast for this period
Text: BECMG 1900/1902 17008KT
Forecast period: 0000 to 0600 UTC 19 September 2021
Forecast type: BECOMING: Conditions expected to become as follows by 0200 UTC 19 September 2021
Winds: from the S (170 degrees) at 9 MPH (8 knots; 4.1 m/s)
Visibility: 6 or more miles (10+ km)
Ceiling: at least 12,000 feet AGL
Clouds: few clouds at 2000 feet AGL
Weather: no significant weather forecast for this period